Pine Galaxy — C6TT5 — position and weather

sailwx.info

Track history (hours):
 
Tides and Currents Weather Stations Pressure Air Temp Water Temp Dewpoint Dewpoint Depression Visibility Wind Speed Wind Dir Waves Ship Positions

Pine Galaxy

Last reported at 2016-Aug-21 13:31 UTC. Time now 2016-Aug-27 20:33 UTC.
Position N 48°31' W 128°04'.

Length 147 m; draft 9.8 m.

Type: Tanker. MMSI: 311772000.

Date/timePositionNaut miles runAvg speedWind from/ knotsBaromVisibWave heightAir tempDewpointWater temp
2016-Aug-21 13:31N 48°31' W 128°04'1212.0
2016-Aug-21 12:32N 48°31' W 127°47'1212.0
2016-Aug-21 11:33N 48°31' W 127°29'1211.9
2016-Aug-21 10:33N 48°31' W 127°11'1111.4
2016-Aug-21 09:33N 48°31' W 126°54'1010.2
2016-Aug-21 08:33N 48°31' W 126°38'10 9.8
2016-Aug-21 07:33N 48°30' W 126°24'1110.5
2016-Aug-21 06:33N 48°30' W 126°08'1211.8
2016-Aug-21 05:33N 48°31' W 125°50'1212.1
2016-Aug-21 04:32N 48°31' W 125°32'1212.5
2016-Aug-21 03:33N 48°31' W 125°13'1413.9
2016-Aug-21 02:33N 48°31' W 124°52'1313.2
2016-Aug-21 01:34N 48°28' W 124°33'1312.5
2016-Aug-21 00:33N 48°23' W 124°16'1212.3
2016-Aug-20 23:33N 48°18' W 123°58'1212.1
2016-Aug-20 22:33N 48°16' W 123°40'9 9.4
2016-Aug-20 21:33N 48°19' W 123°27'8 8.2
2016-Aug-20 20:33N 48°23' W 123°16'1212.3
2016-Aug-20 19:33N 48°36' W 123°14'1211.9
2016-Aug-20 18:33N 48°46' W 123°04'1111.2
2016-Aug-20 17:34N 48°56' W 123°11'1313.3
2016-Aug-20 16:34N 49°06' W 123°23'1312.6
2016-Aug-20 15:33N 49°18' W 123°17'9 9.3
2016-Aug-20 14:34N 49°18' W 123°03'7 6.7
2016-Aug-20 13:34N 49°18' W 122°53'0 0.4
2016-Aug-20 12:31N 49°17' W 122°52'0 0.0
2016-Aug-20 11:28N 49°17' W 122°52'0 0.0
2016-Aug-20 10:31N 49°17' W 122°52'0 0.0
2016-Aug-20 09:31N 49°17' W 122°52'0 0.0
2016-Aug-20 08:31N 49°17' W 122°52'0 0.0
2016-Aug-20 07:31N 49°17' W 122°52'0 0.0
2016-Aug-20 06:19N 49°17' W 122°52'0 0.0
2016-Aug-20 05:31N 49°17' W 122°52'0 0.0
2016-Aug-20 04:31N 49°17' W 122°52'0 0.0
2016-Aug-20 03:31N 49°17' W 122°52'0 0.0
2016-Aug-20 02:28N 49°17' W 122°52'0 0.0
2016-Aug-20 00:10N 49°17' W 122°52'0 0.0
2016-Aug-19 23:31N 49°17' W 122°52'0 0.0
2016-Aug-19 22:28N 49°17' W 122°52'0 0.0
2016-Aug-19 21:16N 49°17' W 122°52'0 0.0
2016-Aug-19 20:25N 49°17' W 122°52'0 0.0
2016-Aug-19 19:31N 49°17' W 122°52'0 0.0
2016-Aug-19 18:31N 49°17' W 122°52'0 0.0
2016-Aug-19 17:28N 49°17' W 122°52'0 0.0
2016-Aug-19 16:28N 49°17' W 122°52'0 0.0
2016-Aug-19 15:28N 49°17' W 122°52'0 0.0
2016-Aug-19 14:25N 49°17' W 122°52'0 0.0
2016-Aug-19 13:28N 49°17' W 122°52'0 0.0
2016-Aug-19 12:25N 49°17' W 122°52'0 0.0
2016-Aug-19 11:28N 49°17' W 122°52'0 0.0
2016-Aug-19 10:31N 49°17' W 122°52'0 0.0
2016-Aug-19 09:33N 49°17' W 122°52'5 4.6
2016-Aug-19 08:33N 49°18' W 122°59'2 1.8
2016-Aug-19 07:33N 49°18' W 123°02'0 0.0
2016-Aug-19 06:33N 49°18' W 123°02'0 0.0
2016-Aug-19 05:33N 49°18' W 123°02'0 0.0
2016-Aug-19 04:33N 49°18' W 123°02'0 0.0
2016-Aug-19 03:33N 49°18' W 123°02'0 0.0
2016-Aug-19 02:33N 49°18' W 123°02'0 0.0
2016-Aug-19 01:33N 49°18' W 123°02'0 0.0
2016-Aug-19 00:33N 49°18' W 123°02'0 0.0
2016-Aug-18 23:33N 49°18' W 123°02'0 0.0
2016-Aug-18 22:33N 49°18' W 123°02'0 0.0
2016-Aug-18 21:33N 49°18' W 123°02'0 0.0
2016-Aug-18 20:33N 49°18' W 123°02'0 0.0
2016-Aug-18 19:33N 49°18' W 123°02'0 0.0
2016-Aug-18 18:33N 49°18' W 123°02'0 0.0
2016-Aug-18 17:33N 49°18' W 123°02'0 0.0
2016-Aug-18 16:33N 49°18' W 123°02'0 0.0
2016-Aug-18 15:33N 49°18' W 123°02'0 0.0
2016-Aug-18 14:33N 49°18' W 123°02'0 0.0
2016-Aug-18 13:33N 49°18' W 123°02'0 0.0
2016-Aug-18 12:33N 49°18' W 123°02'0 0.0
2016-Aug-18 11:33N 49°18' W 123°02'0 0.0
2016-Aug-18 10:33N 49°18' W 123°02'0 0.0
2016-Aug-18 09:33N 49°18' W 123°02'0 0.0
2016-Aug-18 08:30N 49°18' W 123°02'0 0.0
2016-Aug-18 07:33N 49°18' W 123°02'1 0.5
2016-Aug-18 06:33N 49°18' W 123°03'7 7.2
2016-Aug-18 05:33N 49°19' W 123°14'1211.9
2016-Aug-18 04:33N 49°07' W 123°20'1211.9
2016-Aug-18 03:33N 48°57' W 123°10'1312.6
2016-Aug-18 02:33N 48°46' W 123°01'1212.0
2016-Aug-18 01:33N 48°38' W 123°14'1514.7
2016-Aug-18 00:34N 48°23' W 123°14'5 5.2
2016-Aug-17 23:33N 48°21' W 123°21'0 0.0
2016-Aug-17 22:33N 48°21' W 123°21'0 0.0
2016-Aug-17 21:33N 48°21' W 123°21'0 0.0
2016-Aug-17 20:33N 48°21' W 123°21'0 0.0
2016-Aug-17 19:33N 48°21' W 123°21'0 0.0
2016-Aug-17 18:32N 48°21' W 123°21'0 0.1
2016-Aug-17 17:33N 48°21' W 123°21'1 1.3
2016-Aug-17 16:33N 48°20' W 123°22'10 8.8
2016-Aug-17 15:29N 48°14' W 123°33'9 9.6
2016-Aug-17 14:33N 48°14' W 123°47'1211.9
2016-Aug-17 13:34N 48°16' W 124°04'1312.5
2016-Aug-17 12:33N 48°21' W 124°21'1312.8
2016-Aug-17 11:34N 48°27' W 124°39'1313.3
2016-Aug-17 10:33N 48°29' W 124°59'1010.3
2016-Aug-17 09:33N 48°20' W 125°06'8 8.4
2016-Aug-17 08:33N 48°14' W 125°16'1413.5
2016-Aug-17 07:33N 48°06' W 125°32'1313.5
2016-Aug-17 06:33N 47°57' W 125°47'1313.4
2016-Aug-17 05:34N 47°48' W 126°02'1413.8
2016-Aug-17 04:34N 47°40' W 126°19'1414.1
2016-Aug-17 03:33N 47°33' W 126°37'1413.9
2016-Aug-17 02:33N 47°25' W 126°54'1313.5
2016-Aug-17 01:33N 47°18' W 127°10'1413.8
2016-Aug-17 00:32N 47°10' W 127°27'1413.7
2016-Aug-16 23:33N 47°02' W 127°44'1413.6
2016-Aug-16 22:31N 46°55' W 128°01'1313.5
2016-Aug-16 21:33N 46°47' W 128°17'1313.5
2016-Aug-16 20:33N 46°40' W 128°33'  
2016-Aug-14 09:06N 39°01' W 131°01'813.9
2016-Aug-14 08:32N 38°57' W 130°52'1513.8
2016-Aug-14 07:26N 38°51' W 130°35'1313.9
2016-Aug-14 06:29N 38°45' W 130°19'2813.8
2016-Aug-14 04:27N 38°35' W 129°46'1513.7
2016-Aug-14 03:20N 38°29' W 129°28'1113.9
2016-Aug-14 02:32N 38°25' W 129°15'1413.9
2016-Aug-14 01:32N 38°19' W 128°59'1514.0
2016-Aug-14 00:28N 38°14' W 128°41'1514.2
2016-Aug-13 23:24N 38°07' W 128°23'1214.0
2016-Aug-13 22:32N 38°02' W 128°09'1312.9
2016-Aug-13 21:33N 37°59' W 127°54'1513.2
2016-Aug-13 20:24N 37°57' W 127°35'1213.9
2016-Aug-13 19:33N 37°55' W 127°20'1614.0
2016-Aug-13 18:26N 37°54' W 127°00'1213.7
2016-Aug-13 17:32N 37°52' W 126°45'1613.6
2016-Aug-13 16:20N 37°49' W 126°24'5113.4
2016-Aug-13 12:33N 37°42' W 125°21'1413.9
2016-Aug-13 11:34N 37°40' W 125°03'1414.0
2016-Aug-13 10:33N 37°38' W 124°46'1414.2
2016-Aug-13 09:34N 37°36' W 124°28'1413.9
2016-Aug-13 08:33N 37°35' W 124°10'1413.8
2016-Aug-13 07:33N 37°34' W 123°53'1414.1
2016-Aug-13 06:33N 37°34' W 123°35'1414.3
2016-Aug-13 05:34N 37°34' W 123°17'1312.5
2016-Aug-13 04:34N 37°35' W 123°02'1312.6
2016-Aug-13 03:33N 37°42' W 122°49'1110.7
2016-Aug-13 02:34N 37°47' W 122°36'1010.3
2016-Aug-13 01:33N 37°52' W 122°25'10 9.5
2016-Aug-13 00:33N 38°01' W 122°24'1211.8
2016-Aug-12 23:33N 38°02' W 122°09'1010.3
2016-Aug-12 22:33N 38°03' W 121°56'13 8.8
2016-Aug-12 21:05N 38°06' W 121°40'18 6.6
2016-Aug-12 18:18N 37°57' W 121°19'  
Track history (hours):
 
Tides and Currents Weather Stations Pressure Air Temp Water Temp Dewpoint Dewpoint Depression Visibility Wind Speed Wind Dir Waves Ship Positions

Pine Galaxy

Last reported at 2016-Aug-21 13:31 UTC. Time now 2016-Aug-27 20:33 UTC.
Position N 48°31' W 128°04'.

Length 147 m; draft 9.8 m.

Type: Tanker. MMSI: 311772000.

Date/timePositionNaut miles runAvg speedWind from/ knotsBaromVisibWave heightAir tempDewpointWater temp
2016-Aug-21 13:31N 48°31' W 128°04'1212.0
2016-Aug-21 12:32N 48°31' W 127°47'1212.0
2016-Aug-21 11:33N 48°31' W 127°29'1211.9
2016-Aug-21 10:33N 48°31' W 127°11'1111.4
2016-Aug-21 09:33N 48°31' W 126°54'1010.2
2016-Aug-21 08:33N 48°31' W 126°38'10 9.8
2016-Aug-21 07:33N 48°30' W 126°24'1110.5
2016-Aug-21 06:33N 48°30' W 126°08'1211.8
2016-Aug-21 05:33N 48°31' W 125°50'1212.1
2016-Aug-21 04:32N 48°31' W 125°32'1212.5
2016-Aug-21 03:33N 48°31' W 125°13'1413.9
2016-Aug-21 02:33N 48°31' W 124°52'1313.2
2016-Aug-21 01:34N 48°28' W 124°33'1312.5
2016-Aug-21 00:33N 48°23' W 124°16'1212.3
2016-Aug-20 23:33N 48°18' W 123°58'1212.1
2016-Aug-20 22:33N 48°16' W 123°40'9 9.4
2016-Aug-20 21:33N 48°19' W 123°27'8 8.2
2016-Aug-20 20:33N 48°23' W 123°16'1212.3
2016-Aug-20 19:33N 48°36' W 123°14'1211.9
2016-Aug-20 18:33N 48°46' W 123°04'1111.2
2016-Aug-20 17:34N 48°56' W 123°11'1313.3
2016-Aug-20 16:34N 49°06' W 123°23'1312.6
2016-Aug-20 15:33N 49°18' W 123°17'9 9.3
2016-Aug-20 14:34N 49°18' W 123°03'7 6.7
2016-Aug-20 13:34N 49°18' W 122°53'0 0.4
2016-Aug-20 12:31N 49°17' W 122°52'0 0.0
2016-Aug-20 11:28N 49°17' W 122°52'0 0.0
2016-Aug-20 10:31N 49°17' W 122°52'0 0.0
2016-Aug-20 09:31N 49°17' W 122°52'0 0.0
2016-Aug-20 08:31N 49°17' W 122°52'0 0.0
2016-Aug-20 07:31N 49°17' W 122°52'0 0.0
2016-Aug-20 06:19N 49°17' W 122°52'0 0.0
2016-Aug-20 05:31N 49°17' W 122°52'0 0.0
2016-Aug-20 04:31N 49°17' W 122°52'0 0.0
2016-Aug-20 03:31N 49°17' W 122°52'0 0.0
2016-Aug-20 02:28N 49°17' W 122°52'0 0.0
2016-Aug-20 00:10N 49°17' W 122°52'0 0.0
2016-Aug-19 23:31N 49°17' W 122°52'0 0.0
2016-Aug-19 22:28N 49°17' W 122°52'0 0.0
2016-Aug-19 21:16N 49°17' W 122°52'0 0.0
2016-Aug-19 20:25N 49°17' W 122°52'0 0.0
2016-Aug-19 19:31N 49°17' W 122°52'0 0.0
2016-Aug-19 18:31N 49°17' W 122°52'0 0.0
2016-Aug-19 17:28N 49°17' W 122°52'0 0.0
2016-Aug-19 16:28N 49°17' W 122°52'0 0.0
2016-Aug-19 15:28N 49°17' W 122°52'0 0.0
2016-Aug-19 14:25N 49°17' W 122°52'0 0.0
2016-Aug-19 13:28N 49°17' W 122°52'0 0.0
2016-Aug-19 12:25N 49°17' W 122°52'0 0.0
2016-Aug-19 11:28N 49°17' W 122°52'0 0.0
2016-Aug-19 10:31N 49°17' W 122°52'0 0.0
2016-Aug-19 09:33N 49°17' W 122°52'5 4.6
2016-Aug-19 08:33N 49°18' W 122°59'2 1.8
2016-Aug-19 07:33N 49°18' W 123°02'0 0.0
2016-Aug-19 06:33N 49°18' W 123°02'0 0.0
2016-Aug-19 05:33N 49°18' W 123°02'0 0.0
2016-Aug-19 04:33N 49°18' W 123°02'0 0.0
2016-Aug-19 03:33N 49°18' W 123°02'0 0.0
2016-Aug-19 02:33N 49°18' W 123°02'0 0.0
2016-Aug-19 01:33N 49°18' W 123°02'0 0.0
2016-Aug-19 00:33N 49°18' W 123°02'0 0.0
2016-Aug-18 23:33N 49°18' W 123°02'0 0.0
2016-Aug-18 22:33N 49°18' W 123°02'0 0.0
2016-Aug-18 21:33N 49°18' W 123°02'0 0.0
2016-Aug-18 20:33N 49°18' W 123°02'0 0.0
2016-Aug-18 19:33N 49°18' W 123°02'0 0.0
2016-Aug-18 18:33N 49°18' W 123°02'0 0.0
2016-Aug-18 17:33N 49°18' W 123°02'0 0.0
2016-Aug-18 16:33N 49°18' W 123°02'0 0.0
2016-Aug-18 15:33N 49°18' W 123°02'0 0.0
2016-Aug-18 14:33N 49°18' W 123°02'0 0.0
2016-Aug-18 13:33N 49°18' W 123°02'0 0.0
2016-Aug-18 12:33N 49°18' W 123°02'0 0.0
2016-Aug-18 11:33N 49°18' W 123°02'0 0.0
2016-Aug-18 10:33N 49°18' W 123°02'0 0.0
2016-Aug-18 09:33N 49°18' W 123°02'0 0.0
2016-Aug-18 08:30N 49°18' W 123°02'0 0.0
2016-Aug-18 07:33N 49°18' W 123°02'1 0.5
2016-Aug-18 06:33N 49°18' W 123°03'7 7.2
2016-Aug-18 05:33N 49°19' W 123°14'1211.9
2016-Aug-18 04:33N 49°07' W 123°20'1211.9
2016-Aug-18 03:33N 48°57' W 123°10'1312.6
2016-Aug-18 02:33N 48°46' W 123°01'1212.0
2016-Aug-18 01:33N 48°38' W 123°14'1514.7
2016-Aug-18 00:34N 48°23' W 123°14'5 5.2
2016-Aug-17 23:33N 48°21' W 123°21'0 0.0
2016-Aug-17 22:33N 48°21' W 123°21'0 0.0
2016-Aug-17 21:33N 48°21' W 123°21'0 0.0
2016-Aug-17 20:33N 48°21' W 123°21'0 0.0
2016-Aug-17 19:33N 48°21' W 123°21'0 0.0
2016-Aug-17 18:32N 48°21' W 123°21'0 0.1
2016-Aug-17 17:33N 48°21' W 123°21'1 1.3
2016-Aug-17 16:33N 48°20' W 123°22'10 8.8
2016-Aug-17 15:29N 48°14' W 123°33'9 9.6
2016-Aug-17 14:33N 48°14' W 123°47'1211.9
2016-Aug-17 13:34N 48°16' W 124°04'1312.5
2016-Aug-17 12:33N 48°21' W 124°21'1312.8
2016-Aug-17 11:34N 48°27' W 124°39'1313.3
2016-Aug-17 10:33N 48°29' W 124°59'1010.3
2016-Aug-17 09:33N 48°20' W 125°06'8 8.4
2016-Aug-17 08:33N 48°14' W 125°16'1413.5
2016-Aug-17 07:33N 48°06' W 125°32'1313.5
2016-Aug-17 06:33N 47°57' W 125°47'1313.4
2016-Aug-17 05:34N 47°48' W 126°02'1413.8
2016-Aug-17 04:34N 47°40' W 126°19'1414.1
2016-Aug-17 03:33N 47°33' W 126°37'1413.9
2016-Aug-17 02:33N 47°25' W 126°54'1313.5
2016-Aug-17 01:33N 47°18' W 127°10'1413.8
2016-Aug-17 00:32N 47°10' W 127°27'1413.7
2016-Aug-16 23:33N 47°02' W 127°44'1413.6
2016-Aug-16 22:31N 46°55' W 128°01'1313.5
2016-Aug-16 21:33N 46°47' W 128°17'1313.5
2016-Aug-16 20:33N 46°40' W 128°33'  
2016-Aug-14 09:06N 39°01' W 131°01'813.9
2016-Aug-14 08:32N 38°57' W 130°52'1513.8
2016-Aug-14 07:26N 38°51' W 130°35'1313.9
2016-Aug-14 06:29N 38°45' W 130°19'2813.8
2016-Aug-14 04:27N 38°35' W 129°46'1513.7
2016-Aug-14 03:20N 38°29' W 129°28'1113.9
2016-Aug-14 02:32N 38°25' W 129°15'1413.9
2016-Aug-14 01:32N 38°19' W 128°59'1514.0
2016-Aug-14 00:28N 38°14' W 128°41'1514.2
2016-Aug-13 23:24N 38°07' W 128°23'1214.0
2016-Aug-13 22:32N 38°02' W 128°09'1312.9
2016-Aug-13 21:33N 37°59' W 127°54'1513.2
2016-Aug-13 20:24N 37°57' W 127°35'1213.9
2016-Aug-13 19:33N 37°55' W 127°20'1614.0
2016-Aug-13 18:26N 37°54' W 127°00'1213.7
2016-Aug-13 17:32N 37°52' W 126°45'1613.6
2016-Aug-13 16:20N 37°49' W 126°24'5113.4
2016-Aug-13 12:33N 37°42' W 125°21'1413.9
2016-Aug-13 11:34N 37°40' W 125°03'1414.0
2016-Aug-13 10:33N 37°38' W 124°46'1414.2
2016-Aug-13 09:34N 37°36' W 124°28'1413.9
2016-Aug-13 08:33N 37°35' W 124°10'1413.8
2016-Aug-13 07:33N 37°34' W 123°53'1414.1
2016-Aug-13 06:33N 37°34' W 123°35'1414.3
2016-Aug-13 05:34N 37°34' W 123°17'1312.5
2016-Aug-13 04:34N 37°35' W 123°02'1312.6
2016-Aug-13 03:33N 37°42' W 122°49'1110.7
2016-Aug-13 02:34N 37°47' W 122°36'1010.3
2016-Aug-13 01:33N 37°52' W 122°25'10 9.5
2016-Aug-13 00:33N 38°01' W 122°24'1211.8
2016-Aug-12 23:33N 38°02' W 122°09'1010.3
2016-Aug-12 22:33N 38°03' W 121°56'13 8.8
2016-Aug-12 21:05N 38°06' W 121°40'18 6.6
2016-Aug-12 18:18N 37°57' W 121°19'  

Dump ship's entire track history